Terminal Aerodrome Forecast
Issued by NWS

Home | Current Version | Previous Version | Text Only | Print | Product List | Glossary On
Versions: 1 2 3 4 5 6 7 8 9 10 11 12
045
FTUS45 KABQ 252329
TAFFMN
TAF
KFMN 252329Z 2600/2624 21012G20KT P6SM SCT090
     FM260200 28006KT P6SM SCT120
     FM260800 08009KT P6SM SCT120
     FM261700 23008KT P6SM FEW080 BKN120
     FM262000 28012G18KT P6SM SCT070 BKN120=

USA.gov is the U.S. government's official web portal to all federal, state and local government web resources and services.